sensor_id;sensor_type;location;lat;lon;timestamp;P1;durP1;ratioP1;P2;durP2;ratioP2
793;SDS011;380;48.738;9.214;2022-09-02T00:01:10;4.43;;;2.97;;
793;SDS011;380;48.738;9.214;2022-09-02T00:03:37;3.35;;;2.60;;
793;SDS011;380;48.738;9.214;2022-09-02T00:06:03;3.08;;;2.60;;
793;SDS011;380;48.738;9.214;2022-09-02T00:08:29;3.05;;;2.40;;
793;SDS011;380;48.738;9.214;2022-09-02T00:10:56;3.40;;;2.78;;
793;SDS011;380;48.738;9.214;2022-09-02T00:13:22;2.85;;;2.08;;
793;SDS011;380;48.738;9.214;2022-09-02T00:15:49;5.03;;;2.45;;
793;SDS011;380;48.738;9.214;2022-09-02T00:18:15;3.30;;;2.42;;
793;SDS011;380;48.738;9.214;2022-09-02T00:20:42;2.95;;;2.17;;
793;SDS011;380;48.738;9.214;2022-09-02T00:23:09;3.03;;;2.08;;
793;SDS011;380;48.738;9.214;2022-09-02T00:25:35;3.58;;;1.98;;
793;SDS011;380;48.738;9.214;2022-09-02T00:28:01;2.85;;;1.88;;
793;SDS011;380;48.738;9.214;2022-09-02T00:30:27;3.13;;;1.98;;
793;SDS011;380;48.738;9.214;2022-09-02T00:32:53;2.80;;;2.20;;
793;SDS011;380;48.738;9.214;2022-09-02T00:35:19;2.97;;;2.30;;
793;SDS011;380;48.738;9.214;2022-09-02T00:37:45;2.90;;;2.03;;
793;SDS011;380;48.738;9.214;2022-09-02T00:40:12;5.45;;;2.45;;
793;SDS011;380;48.738;9.214;2022-09-02T00:42:38;4.45;;;2.15;;
793;SDS011;380;48.738;9.214;2022-09-02T00:45:05;2.92;;;2.22;;
793;SDS011;380;48.738;9.214;2022-09-02T00:47:31;3.10;;;2.55;;
793;SDS011;380;48.738;9.214;2022-09-02T00:49:57;3.78;;;3.10;;
793;SDS011;380;48.738;9.214;2022-09-02T00:52:34;3.38;;;2.38;;
793;SDS011;380;48.738;9.214;2022-09-02T00:55:07;3.55;;;1.95;;
793;SDS011;380;48.738;9.214;2022-09-02T00:57:36;3.15;;;1.95;;
793;SDS011;380;48.738;9.214;2022-09-02T01:00:08;3.45;;;2.53;;
793;SDS011;380;48.738;9.214;2022-09-02T01:02:35;3.53;;;2.30;;
793;SDS011;380;48.738;9.214;2022-09-02T01:05:02;3.42;;;2.63;;
793;SDS011;380;48.738;9.214;2022-09-02T01:07:30;3.80;;;2.25;;
793;SDS011;380;48.738;9.214;2022-09-02T01:09:58;2.97;;;2.05;;
793;SDS011;380;48.738;9.214;2022-09-02T01:12:24;2.88;;;1.83;;
793;SDS011;380;48.738;9.214;2022-09-02T01:14:51;2.80;;;1.95;;
793;SDS011;380;48.738;9.214;2022-09-02T01:17:17;3.28;;;2.35;;
793;SDS011;380;48.738;9.214;2022-09-02T01:19:45;2.75;;;1.83;;
793;SDS011;380;48.738;9.214;2022-09-02T01:22:26;4.13;;;2.65;;
793;SDS011;380;48.738;9.214;2022-09-02T01:24:53;3.30;;;2.13;;
793;SDS011;380;48.738;9.214;2022-09-02T01:27:21;4.10;;;2.13;;
793;SDS011;380;48.738;9.214;2022-09-02T01:29:51;3.13;;;2.08;;
793;SDS011;380;48.738;9.214;2022-09-02T01:32:17;3.15;;;2.28;;
793;SDS011;380;48.738;9.214;2022-09-02T01:34:43;3.58;;;2.35;;
793;SDS011;380;48.738;9.214;2022-09-02T01:37:09;2.92;;;2.15;;
793;SDS011;380;48.738;9.214;2022-09-02T01:39:35;2.85;;;2.25;;
793;SDS011;380;48.738;9.214;2022-09-02T01:42:01;2.60;;;1.92;;
793;SDS011;380;48.738;9.214;2022-09-02T01:44:27;2.72;;;2.22;;
793;SDS011;380;48.738;9.214;2022-09-02T01:46:54;3.08;;;2.15;;
793;SDS011;380;48.738;9.214;2022-09-02T01:49:20;4.30;;;2.22;;
793;SDS011;380;48.738;9.214;2022-09-02T01:51:46;3.17;;;2.17;;
793;SDS011;380;48.738;9.214;2022-09-02T01:54:12;4.72;;;2.33;;
793;SDS011;380;48.738;9.214;2022-09-02T01:56:38;2.92;;;1.98;;
793;SDS011;380;48.738;9.214;2022-09-02T01:59:04;3.38;;;2.00;;
793;SDS011;380;48.738;9.214;2022-09-02T02:01:32;4.82;;;2.78;;
793;SDS011;380;48.738;9.214;2022-09-02T02:03:58;4.15;;;2.58;;
793;SDS011;380;48.738;9.214;2022-09-02T02:06:25;3.00;;;2.13;;
793;SDS011;380;48.738;9.214;2022-09-02T02:08:51;3.65;;;2.30;;
793;SDS011;380;48.738;9.214;2022-09-02T02:11:18;4.38;;;2.17;;
793;SDS011;380;48.738;9.214;2022-09-02T02:13:45;5.22;;;2.00;;
793;SDS011;380;48.738;9.214;2022-09-02T02:16:11;2.67;;;1.92;;
793;SDS011;380;48.738;9.214;2022-09-02T02:18:37;2.53;;;1.92;;
793;SDS011;380;48.738;9.214;2022-09-02T02:21:03;3.63;;;2.78;;
793;SDS011;380;48.738;9.214;2022-09-02T02:23:29;3.40;;;2.45;;
793;SDS011;380;48.738;9.214;2022-09-02T02:25:55;3.53;;;3.17;;
793;SDS011;380;48.738;9.214;2022-09-02T02:28:21;3.10;;;2.40;;
793;SDS011;380;48.738;9.214;2022-09-02T02:30:47;3.03;;;2.50;;
793;SDS011;380;48.738;9.214;2022-09-02T02:33:13;2.60;;;1.85;;
793;SDS011;380;48.738;9.214;2022-09-02T02:35:40;4.10;;;2.40;;
793;SDS011;380;48.738;9.214;2022-09-02T02:38:06;3.83;;;2.38;;
793;SDS011;380;48.738;9.214;2022-09-02T02:40:33;2.97;;;2.53;;
793;SDS011;380;48.738;9.214;2022-09-02T02:42:59;2.75;;;2.08;;
793;SDS011;380;48.738;9.214;2022-09-02T02:45:25;3.25;;;2.45;;
793;SDS011;380;48.738;9.214;2022-09-02T02:47:51;3.10;;;2.30;;
793;SDS011;380;48.738;9.214;2022-09-02T02:50:19;2.95;;;2.00;;
793;SDS011;380;48.738;9.214;2022-09-02T02:52:45;2.30;;;1.85;;
793;SDS011;380;48.738;9.214;2022-09-02T02:55:13;2.88;;;2.25;;
793;SDS011;380;48.738;9.214;2022-09-02T02:57:39;5.70;;;2.35;;
793;SDS011;380;48.738;9.214;2022-09-02T03:00:28;3.55;;;2.17;;
793;SDS011;380;48.738;9.214;2022-09-02T03:02:57;3.53;;;2.20;;
793;SDS011;380;48.738;9.214;2022-09-02T03:05:23;3.00;;;2.25;;
793;SDS011;380;48.738;9.214;2022-09-02T03:07:49;2.78;;;2.05;;
793;SDS011;380;48.738;9.214;2022-09-02T03:10:15;4.45;;;2.80;;
793;SDS011;380;48.738;9.214;2022-09-02T03:12:42;6.03;;;2.50;;
793;SDS011;380;48.738;9.214;2022-09-02T03:15:11;2.63;;;2.35;;
793;SDS011;380;48.738;9.214;2022-09-02T03:17:39;3.67;;;2.40;;
793;SDS011;380;48.738;9.214;2022-09-02T03:20:05;2.72;;;2.22;;
793;SDS011;380;48.738;9.214;2022-09-02T03:22:32;3.22;;;1.98;;
793;SDS011;380;48.738;9.214;2022-09-02T03:24:59;5.85;;;2.42;;
793;SDS011;380;48.738;9.214;2022-09-02T03:27:25;5.05;;;2.63;;
793;SDS011;380;48.738;9.214;2022-09-02T03:29:51;2.55;;;2.00;;
793;SDS011;380;48.738;9.214;2022-09-02T03:32:17;3.63;;;2.42;;
793;SDS011;380;48.738;9.214;2022-09-02T03:34:43;5.68;;;2.30;;
793;SDS011;380;48.738;9.214;2022-09-02T03:37:09;3.50;;;2.78;;
793;SDS011;380;48.738;9.214;2022-09-02T03:39:36;4.30;;;2.38;;
793;SDS011;380;48.738;9.214;2022-09-02T03:42:03;4.38;;;3.03;;
793;SDS011;380;48.738;9.214;2022-09-02T03:44:29;3.05;;;2.10;;
793;SDS011;380;48.738;9.214;2022-09-02T03:46:57;5.95;;;2.92;;
793;SDS011;380;48.738;9.214;2022-09-02T03:49:23;2.50;;;1.92;;
793;SDS011;380;48.738;9.214;2022-09-02T03:51:49;3.75;;;2.40;;
793;SDS011;380;48.738;9.214;2022-09-02T03:54:15;3.67;;;2.83;;
793;SDS011;380;48.738;9.214;2022-09-02T03:56:40;3.72;;;2.47;;
793;SDS011;380;48.738;9.214;2022-09-02T03:59:06;5.97;;;2.72;;
793;SDS011;380;48.738;9.214;2022-09-02T04:01:32;3.47;;;2.05;;
793;SDS011;380;48.738;9.214;2022-09-02T04:03:59;3.53;;;2.60;;
793;SDS011;380;48.738;9.214;2022-09-02T04:06:26;3.35;;;2.58;;
793;SDS011;380;48.738;9.214;2022-09-02T04:08:52;3.38;;;2.50;;
793;SDS011;380;48.738;9.214;2022-09-02T04:11:19;4.85;;;2.67;;
793;SDS011;380;48.738;9.214;2022-09-02T04:13:46;2.92;;;2.20;;
793;SDS011;380;48.738;9.214;2022-09-02T04:16:13;3.20;;;2.20;;
793;SDS011;380;48.738;9.214;2022-09-02T04:18:40;3.63;;;2.70;;
793;SDS011;380;48.738;9.214;2022-09-02T04:21:07;4.13;;;3.15;;
793;SDS011;380;48.738;9.214;2022-09-02T04:23:33;3.85;;;2.92;;
793;SDS011;380;48.738;9.214;2022-09-02T04:26:18;3.00;;;2.60;;
793;SDS011;380;48.738;9.214;2022-09-02T04:28:46;3.00;;;2.22;;
793;SDS011;380;48.738;9.214;2022-09-02T04:31:12;4.47;;;2.92;;
793;SDS011;380;48.738;9.214;2022-09-02T04:33:39;4.22;;;2.55;;
793;SDS011;380;48.738;9.214;2022-09-02T04:36:06;3.05;;;2.30;;
793;SDS011;380;48.738;9.214;2022-09-02T04:38:33;4.80;;;3.20;;
793;SDS011;380;48.738;9.214;2022-09-02T04:41:00;4.93;;;2.83;;
793;SDS011;380;48.738;9.214;2022-09-02T04:43:30;4.22;;;3.17;;
793;SDS011;380;48.738;9.214;2022-09-02T04:45:56;4.25;;;2.97;;
793;SDS011;380;48.738;9.214;2022-09-02T04:48:22;4.40;;;3.00;;
793;SDS011;380;48.738;9.214;2022-09-02T04:50:47;5.88;;;2.97;;
793;SDS011;380;48.738;9.214;2022-09-02T04:53:14;2.47;;;2.10;;
793;SDS011;380;48.738;9.214;2022-09-02T04:55:40;3.45;;;2.88;;
793;SDS011;380;48.738;9.214;2022-09-02T04:58:07;3.33;;;2.63;;
793;SDS011;380;48.738;9.214;2022-09-02T05:00:33;9.23;;;3.05;;
793;SDS011;380;48.738;9.214;2022-09-02T05:02:59;3.90;;;3.10;;
793;SDS011;380;48.738;9.214;2022-09-02T05:05:25;3.58;;;2.38;;
793;SDS011;380;48.738;9.214;2022-09-02T05:07:51;4.32;;;2.80;;
793;SDS011;380;48.738;9.214;2022-09-02T05:10:19;3.90;;;3.40;;
793;SDS011;380;48.738;9.214;2022-09-02T05:12:45;5.35;;;2.85;;
793;SDS011;380;48.738;9.214;2022-09-02T05:15:11;3.97;;;2.63;;
793;SDS011;380;48.738;9.214;2022-09-02T05:17:37;4.72;;;3.03;;
793;SDS011;380;48.738;9.214;2022-09-02T05:20:03;6.78;;;2.90;;
793;SDS011;380;48.738;9.214;2022-09-02T05:22:30;2.83;;;2.25;;
793;SDS011;380;48.738;9.214;2022-09-02T05:24:56;4.93;;;2.72;;
793;SDS011;380;48.738;9.214;2022-09-02T05:27:22;4.65;;;2.80;;
793;SDS011;380;48.738;9.214;2022-09-02T05:29:48;3.78;;;2.88;;
793;SDS011;380;48.738;9.214;2022-09-02T05:32:14;4.20;;;2.70;;
793;SDS011;380;48.738;9.214;2022-09-02T05:34:40;5.28;;;3.08;;
793;SDS011;380;48.738;9.214;2022-09-02T05:37:06;5.88;;;3.00;;
793;SDS011;380;48.738;9.214;2022-09-02T05:39:33;2.65;;;2.05;;
793;SDS011;380;48.738;9.214;2022-09-02T05:41:59;3.75;;;1.92;;
793;SDS011;380;48.738;9.214;2022-09-02T05:44:25;3.33;;;1.98;;
793;SDS011;380;48.738;9.214;2022-09-02T05:46:53;3.85;;;2.10;;
793;SDS011;380;48.738;9.214;2022-09-02T05:49:19;3.42;;;2.10;;
793;SDS011;380;48.738;9.214;2022-09-02T05:51:47;3.20;;;2.10;;
793;SDS011;380;48.738;9.214;2022-09-02T05:54:15;2.80;;;1.80;;
793;SDS011;380;48.738;9.214;2022-09-02T05:56:42;3.42;;;2.03;;
793;SDS011;380;48.738;9.214;2022-09-02T05:59:09;2.70;;;1.83;;
793;SDS011;380;48.738;9.214;2022-09-02T06:01:35;2.50;;;1.40;;
793;SDS011;380;48.738;9.214;2022-09-02T06:04:02;3.92;;;2.20;;
793;SDS011;380;48.738;9.214;2022-09-02T06:06:28;2.38;;;1.67;;
793;SDS011;380;48.738;9.214;2022-09-02T06:08:54;3.17;;;1.77;;
793;SDS011;380;48.738;9.214;2022-09-02T06:11:20;3.78;;;2.22;;
793;SDS011;380;48.738;9.214;2022-09-02T06:13:46;5.55;;;2.03;;
793;SDS011;380;48.738;9.214;2022-09-02T06:16:16;3.45;;;2.25;;
793;SDS011;380;48.738;9.214;2022-09-02T06:18:43;4.30;;;1.77;;
793;SDS011;380;48.738;9.214;2022-09-02T06:21:09;4.82;;;2.42;;
793;SDS011;380;48.738;9.214;2022-09-02T06:23:35;3.15;;;2.22;;
793;SDS011;380;48.738;9.214;2022-09-02T06:26:03;3.90;;;2.53;;
793;SDS011;380;48.738;9.214;2022-09-02T06:28:29;4.95;;;2.50;;
793;SDS011;380;48.738;9.214;2022-09-02T06:30:56;3.33;;;2.17;;
793;SDS011;380;48.738;9.214;2022-09-02T06:33:22;3.17;;;2.20;;
793;SDS011;380;48.738;9.214;2022-09-02T06:35:48;3.05;;;1.92;;
793;SDS011;380;48.738;9.214;2022-09-02T06:38:15;4.90;;;2.20;;
793;SDS011;380;48.738;9.214;2022-09-02T06:40:47;3.28;;;2.72;;
793;SDS011;380;48.738;9.214;2022-09-02T06:43:13;3.13;;;2.25;;
793;SDS011;380;48.738;9.214;2022-09-02T06:45:39;4.70;;;2.95;;
793;SDS011;380;48.738;9.214;2022-09-02T06:48:05;4.10;;;2.80;;
793;SDS011;380;48.738;9.214;2022-09-02T06:50:31;3.40;;;2.40;;
793;SDS011;380;48.738;9.214;2022-09-02T06:52:57;3.33;;;2.75;;
793;SDS011;380;48.738;9.214;2022-09-02T06:55:23;4.20;;;2.30;;
793;SDS011;380;48.738;9.214;2022-09-02T06:57:49;3.80;;;2.50;;
793;SDS011;380;48.738;9.214;2022-09-02T07:00:15;3.03;;;2.13;;
793;SDS011;380;48.738;9.214;2022-09-02T07:02:41;4.28;;;2.65;;
793;SDS011;380;48.738;9.214;2022-09-02T07:05:08;3.22;;;2.38;;
793;SDS011;380;48.738;9.214;2022-09-02T07:07:35;3.45;;;2.78;;
793;SDS011;380;48.738;9.214;2022-09-02T07:10:02;4.82;;;2.92;;
793;SDS011;380;48.738;9.214;2022-09-02T07:12:28;4.13;;;2.42;;
793;SDS011;380;48.738;9.214;2022-09-02T07:14:54;5.05;;;2.30;;
793;SDS011;380;48.738;9.214;2022-09-02T07:17:20;4.60;;;3.05;;
793;SDS011;380;48.738;9.214;2022-09-02T07:19:48;3.10;;;2.35;;
793;SDS011;380;48.738;9.214;2022-09-02T07:22:14;3.83;;;3.03;;
793;SDS011;380;48.738;9.214;2022-09-02T07:24:40;5.97;;;3.17;;
793;SDS011;380;48.738;9.214;2022-09-02T07:27:06;4.13;;;2.63;;
793;SDS011;380;48.738;9.214;2022-09-02T07:29:32;5.70;;;2.90;;
793;SDS011;380;48.738;9.214;2022-09-02T07:31:58;3.88;;;2.38;;
793;SDS011;380;48.738;9.214;2022-09-02T07:34:24;3.47;;;2.90;;
793;SDS011;380;48.738;9.214;2022-09-02T07:36:50;3.35;;;2.50;;
793;SDS011;380;48.738;9.214;2022-09-02T07:39:17;4.53;;;2.70;;
793;SDS011;380;48.738;9.214;2022-09-02T07:41:44;3.28;;;2.30;;
793;SDS011;380;48.738;9.214;2022-09-02T07:44:10;3.10;;;2.30;;
793;SDS011;380;48.738;9.214;2022-09-02T07:46:37;3.28;;;2.13;;
793;SDS011;380;48.738;9.214;2022-09-02T07:49:04;3.33;;;2.15;;
793;SDS011;380;48.738;9.214;2022-09-02T07:51:31;4.72;;;2.00;;
793;SDS011;380;48.738;9.214;2022-09-02T07:53:58;2.80;;;2.17;;
793;SDS011;380;48.738;9.214;2022-09-02T07:56:24;3.60;;;2.17;;
793;SDS011;380;48.738;9.214;2022-09-02T07:58:50;3.72;;;1.98;;
793;SDS011;380;48.738;9.214;2022-09-02T08:01:16;2.88;;;2.08;;
793;SDS011;380;48.738;9.214;2022-09-02T08:03:43;5.93;;;2.63;;
793;SDS011;380;48.738;9.214;2022-09-02T08:06:10;6.25;;;2.28;;
793;SDS011;380;48.738;9.214;2022-09-02T08:08:37;3.08;;;2.10;;
793;SDS011;380;48.738;9.214;2022-09-02T08:11:03;2.05;;;1.50;;
793;SDS011;380;48.738;9.214;2022-09-02T08:13:30;2.90;;;1.75;;
793;SDS011;380;48.738;9.214;2022-09-02T08:15:55;3.22;;;2.17;;
793;SDS011;380;48.738;9.214;2022-09-02T08:18:21;2.92;;;1.90;;
793;SDS011;380;48.738;9.214;2022-09-02T08:20:49;3.67;;;2.25;;
793;SDS011;380;48.738;9.214;2022-09-02T08:23:15;2.72;;;1.80;;
793;SDS011;380;48.738;9.214;2022-09-02T08:25:41;2.85;;;1.50;;
793;SDS011;380;48.738;9.214;2022-09-02T08:28:07;2.20;;;1.50;;
793;SDS011;380;48.738;9.214;2022-09-02T08:30:33;2.25;;;1.80;;
793;SDS011;380;48.738;9.214;2022-09-02T08:32:59;1.90;;;1.38;;
793;SDS011;380;48.738;9.214;2022-09-02T08:35:25;3.65;;;1.98;;
793;SDS011;380;48.738;9.214;2022-09-02T08:37:51;2.42;;;1.63;;
793;SDS011;380;48.738;9.214;2022-09-02T08:40:21;2.70;;;1.90;;
793;SDS011;380;48.738;9.214;2022-09-02T08:47:46;3.58;;;1.95;;
793;SDS011;380;48.738;9.214;2022-09-02T08:50:15;2.95;;;1.23;;
793;SDS011;380;48.738;9.214;2022-09-02T08:52:43;2.65;;;1.83;;
793;SDS011;380;48.738;9.214;2022-09-02T08:55:23;2.83;;;1.70;;
793;SDS011;380;48.738;9.214;2022-09-02T08:57:52;2.78;;;1.77;;
793;SDS011;380;48.738;9.214;2022-09-02T09:00:21;2.10;;;1.35;;
793;SDS011;380;48.738;9.214;2022-09-02T09:08:13;2.13;;;1.20;;
793;SDS011;380;48.738;9.214;2022-09-02T09:16:03;2.60;;;1.58;;
793;SDS011;380;48.738;9.214;2022-09-02T09:18:36;4.07;;;1.80;;
793;SDS011;380;48.738;9.214;2022-09-02T09:21:02;3.17;;;1.65;;
793;SDS011;380;48.738;9.214;2022-09-02T09:23:29;2.67;;;1.50;;
793;SDS011;380;48.738;9.214;2022-09-02T09:28:30;3.60;;;1.52;;
793;SDS011;380;48.738;9.214;2022-09-02T09:30:58;2.28;;;1.33;;
793;SDS011;380;48.738;9.214;2022-09-02T09:33:25;2.92;;;1.67;;
793;SDS011;380;48.738;9.214;2022-09-02T09:35:52;2.25;;;1.40;;
793;SDS011;380;48.738;9.214;2022-09-02T09:38:28;2.20;;;1.25;;
793;SDS011;380;48.738;9.214;2022-09-02T09:41:11;2.47;;;1.25;;
793;SDS011;380;48.738;9.214;2022-09-02T09:43:39;2.28;;;1.30;;
793;SDS011;380;48.738;9.214;2022-09-02T09:46:23;3.08;;;1.45;;
793;SDS011;380;48.738;9.214;2022-09-02T09:48:50;4.18;;;1.65;;
793;SDS011;380;48.738;9.214;2022-09-02T09:51:16;2.70;;;1.50;;
793;SDS011;380;48.738;9.214;2022-09-02T09:53:42;2.05;;;1.33;;
793;SDS011;380;48.738;9.214;2022-09-02T10:03:35;2.33;;;1.27;;
793;SDS011;380;48.738;9.214;2022-09-02T10:11:54;2.53;;;1.23;;
793;SDS011;380;48.738;9.214;2022-09-02T10:14:20;3.80;;;1.13;;
793;SDS011;380;48.738;9.214;2022-09-02T10:27:00;1.73;;;0.93;;
793;SDS011;380;48.738;9.214;2022-09-02T10:42:15;1.88;;;0.93;;
793;SDS011;380;48.738;9.214;2022-09-02T10:47:16;2.10;;;1.00;;
793;SDS011;380;48.738;9.214;2022-09-02T10:57:10;2.80;;;0.70;;
793;SDS011;380;48.738;9.214;2022-09-02T10:59:40;1.85;;;1.10;;
793;SDS011;380;48.738;9.214;2022-09-02T11:04:45;1.75;;;1.00;;
793;SDS011;380;48.738;9.214;2022-09-02T11:07:16;1.92;;;1.27;;
793;SDS011;380;48.738;9.214;2022-09-02T11:12:12;3.03;;;1.48;;
793;SDS011;380;48.738;9.214;2022-09-02T11:19:48;3.65;;;1.20;;
793;SDS011;380;48.738;9.214;2022-09-02T11:22:25;1.95;;;0.90;;
793;SDS011;380;48.738;9.214;2022-09-02T11:30:16;1.88;;;1.20;;
793;SDS011;380;48.738;9.214;2022-09-02T11:35:35;1.80;;;0.85;;
793;SDS011;380;48.738;9.214;2022-09-02T11:40:41;2.03;;;1.17;;
793;SDS011;380;48.738;9.214;2022-09-02T11:45:57;2.03;;;1.08;;
793;SDS011;380;48.738;9.214;2022-09-02T11:53:22;2.20;;;1.10;;
793;SDS011;380;48.738;9.214;2022-09-02T11:56:03;2.13;;;1.40;;
793;SDS011;380;48.738;9.214;2022-09-02T11:58:31;1.50;;;0.90;;
793;SDS011;380;48.738;9.214;2022-09-02T12:03:42;2.08;;;1.08;;
793;SDS011;380;48.738;9.214;2022-09-02T12:06:10;2.47;;;1.33;;
793;SDS011;380;48.738;9.214;2022-09-02T12:11:04;1.80;;;1.10;;
793;SDS011;380;48.738;9.214;2022-09-02T12:16:33;2.55;;;1.15;;
793;SDS011;380;48.738;9.214;2022-09-02T12:21:18;2.35;;;1.20;;
793;SDS011;380;48.738;9.214;2022-09-02T12:26:20;1.80;;;1.10;;
793;SDS011;380;48.738;9.214;2022-09-02T12:28:47;1.67;;;0.95;;
793;SDS011;380;48.738;9.214;2022-09-02T12:31:35;1.60;;;0.90;;
793;SDS011;380;48.738;9.214;2022-09-02T12:34:48;2.20;;;1.20;;
793;SDS011;380;48.738;9.214;2022-09-02T12:36:53;2.00;;;1.02;;
793;SDS011;380;48.738;9.214;2022-09-02T12:44:35;2.20;;;0.98;;
793;SDS011;380;48.738;9.214;2022-09-02T12:47:10;1.90;;;1.27;;
793;SDS011;380;48.738;9.214;2022-09-02T12:49:45;1.83;;;1.05;;
793;SDS011;380;48.738;9.214;2022-09-02T12:57:39;1.50;;;0.85;;
793;SDS011;380;48.738;9.214;2022-09-02T13:00:05;2.10;;;1.48;;
793;SDS011;380;48.738;9.214;2022-09-02T13:02:51;2.50;;;1.08;;
793;SDS011;380;48.738;9.214;2022-09-02T13:05:23;2.72;;;1.33;;
793;SDS011;380;48.738;9.214;2022-09-02T13:18:38;2.28;;;1.48;;
793;SDS011;380;48.738;9.214;2022-09-02T13:23:57;1.92;;;1.20;;
793;SDS011;380;48.738;9.214;2022-09-02T13:29:18;3.45;;;1.80;;
793;SDS011;380;48.738;9.214;2022-09-02T13:32:01;3.17;;;1.45;;
793;SDS011;380;48.738;9.214;2022-09-02T13:34:41;2.17;;;1.08;;
793;SDS011;380;48.738;9.214;2022-09-02T13:37:52;2.38;;;1.83;;
793;SDS011;380;48.738;9.214;2022-09-02T13:39:57;2.20;;;1.20;;
793;SDS011;380;48.738;9.214;2022-09-02T13:42:25;2.17;;;1.35;;
793;SDS011;380;48.738;9.214;2022-09-02T13:45:10;2.10;;;1.52;;
793;SDS011;380;48.738;9.214;2022-09-02T13:47:39;2.05;;;1.20;;
793;SDS011;380;48.738;9.214;2022-09-02T13:50:06;2.95;;;1.60;;
793;SDS011;380;48.738;9.214;2022-09-02T13:52:32;3.58;;;1.80;;
793;SDS011;380;48.738;9.214;2022-09-02T13:55:02;2.95;;;1.63;;
793;SDS011;380;48.738;9.214;2022-09-02T13:57:28;2.88;;;1.58;;
793;SDS011;380;48.738;9.214;2022-09-02T13:59:56;2.65;;;1.75;;
793;SDS011;380;48.738;9.214;2022-09-02T14:02:26;3.38;;;1.23;;
793;SDS011;380;48.738;9.214;2022-09-02T14:04:54;2.80;;;1.40;;
793;SDS011;380;48.738;9.214;2022-09-02T14:07:31;1.98;;;1.30;;
793;SDS011;380;48.738;9.214;2022-09-02T14:09:59;5.70;;;1.75;;
793;SDS011;380;48.738;9.214;2022-09-02T14:12:26;2.13;;;1.40;;
793;SDS011;380;48.738;9.214;2022-09-02T14:14:54;3.63;;;2.17;;
793;SDS011;380;48.738;9.214;2022-09-02T14:17:24;2.65;;;1.42;;
793;SDS011;380;48.738;9.214;2022-09-02T14:19:51;2.97;;;1.20;;
793;SDS011;380;48.738;9.214;2022-09-02T14:22:32;2.38;;;1.42;;
793;SDS011;380;48.738;9.214;2022-09-02T14:24:59;2.65;;;1.35;;
793;SDS011;380;48.738;9.214;2022-09-02T14:27:32;1.83;;;1.20;;
793;SDS011;380;48.738;9.214;2022-09-02T14:29:58;2.85;;;1.40;;
793;SDS011;380;48.738;9.214;2022-09-02T14:32:27;2.50;;;1.17;;
793;SDS011;380;48.738;9.214;2022-09-02T14:35:18;2.58;;;1.50;;
793;SDS011;380;48.738;9.214;2022-09-02T14:37:52;2.67;;;1.20;;
793;SDS011;380;48.738;9.214;2022-09-02T14:40:35;1.88;;;1.20;;
793;SDS011;380;48.738;9.214;2022-09-02T14:43:02;2.25;;;1.00;;
793;SDS011;380;48.738;9.214;2022-09-02T14:45:32;3.00;;;1.48;;
793;SDS011;380;48.738;9.214;2022-09-02T14:48:07;2.28;;;1.08;;
793;SDS011;380;48.738;9.214;2022-09-02T14:50:34;5.50;;;1.50;;
793;SDS011;380;48.738;9.214;2022-09-02T14:53:05;1.67;;;0.95;;
793;SDS011;380;48.738;9.214;2022-09-02T14:58:04;2.03;;;1.25;;
793;SDS011;380;48.738;9.214;2022-09-02T15:00:29;1.58;;;1.00;;
793;SDS011;380;48.738;9.214;2022-09-02T15:02:56;2.88;;;1.50;;
793;SDS011;380;48.738;9.214;2022-09-02T15:05:24;5.07;;;1.23;;
793;SDS011;380;48.738;9.214;2022-09-02T15:07:50;2.70;;;1.05;;
793;SDS011;380;48.738;9.214;2022-09-02T15:10:16;2.25;;;0.95;;
793;SDS011;380;48.738;9.214;2022-09-02T15:12:49;1.98;;;0.85;;
793;SDS011;380;48.738;9.214;2022-09-02T15:15:17;2.20;;;1.13;;
793;SDS011;380;48.738;9.214;2022-09-02T15:17:43;2.22;;;1.27;;
793;SDS011;380;48.738;9.214;2022-09-02T15:20:09;1.98;;;0.95;;
793;SDS011;380;48.738;9.214;2022-09-02T15:22:35;2.05;;;1.00;;
793;SDS011;380;48.738;9.214;2022-09-02T15:25:02;2.35;;;1.15;;
793;SDS011;380;48.738;9.214;2022-09-02T15:27:29;2.53;;;1.17;;
793;SDS011;380;48.738;9.214;2022-09-02T15:29:55;4.03;;;1.20;;
793;SDS011;380;48.738;9.214;2022-09-02T15:32:21;3.08;;;1.30;;
793;SDS011;380;48.738;9.214;2022-09-02T15:34:50;2.13;;;1.15;;
793;SDS011;380;48.738;9.214;2022-09-02T15:37:16;2.08;;;1.08;;
793;SDS011;380;48.738;9.214;2022-09-02T15:39:42;1.60;;;0.95;;
793;SDS011;380;48.738;9.214;2022-09-02T15:42:08;1.52;;;1.00;;
793;SDS011;380;48.738;9.214;2022-09-02T15:44:34;1.85;;;1.20;;
793;SDS011;380;48.738;9.214;2022-09-02T15:47:00;2.70;;;1.27;;
793;SDS011;380;48.738;9.214;2022-09-02T15:49:26;5.18;;;1.33;;
793;SDS011;380;48.738;9.214;2022-09-02T15:51:52;2.67;;;1.10;;
793;SDS011;380;48.738;9.214;2022-09-02T15:54:20;2.05;;;1.13;;
793;SDS011;380;48.738;9.214;2022-09-02T15:56:46;1.80;;;0.90;;
793;SDS011;380;48.738;9.214;2022-09-02T15:59:14;1.98;;;1.17;;
793;SDS011;380;48.738;9.214;2022-09-02T16:01:41;2.63;;;1.48;;
793;SDS011;380;48.738;9.214;2022-09-02T16:04:08;4.10;;;1.10;;
793;SDS011;380;48.738;9.214;2022-09-02T16:06:35;1.70;;;1.02;;
793;SDS011;380;48.738;9.214;2022-09-02T16:09:02;1.90;;;0.95;;
793;SDS011;380;48.738;9.214;2022-09-02T16:11:28;2.25;;;1.17;;
793;SDS011;380;48.738;9.214;2022-09-02T16:13:54;1.35;;;0.75;;
793;SDS011;380;48.738;9.214;2022-09-02T16:16:20;2.50;;;1.40;;
793;SDS011;380;48.738;9.214;2022-09-02T16:18:50;1.60;;;0.80;;
793;SDS011;380;48.738;9.214;2022-09-02T16:21:16;2.38;;;1.05;;
793;SDS011;380;48.738;9.214;2022-09-02T16:23:43;2.55;;;1.17;;
793;SDS011;380;48.738;9.214;2022-09-02T16:28:41;2.30;;;1.38;;
793;SDS011;380;48.738;9.214;2022-09-02T16:31:08;3.10;;;1.40;;
793;SDS011;380;48.738;9.214;2022-09-02T16:33:34;2.38;;;1.52;;
793;SDS011;380;48.738;9.214;2022-09-02T16:36:01;3.92;;;1.42;;
793;SDS011;380;48.738;9.214;2022-09-02T16:38:28;2.90;;;1.27;;
793;SDS011;380;48.738;9.214;2022-09-02T16:40:54;2.00;;;1.38;;
793;SDS011;380;48.738;9.214;2022-09-02T16:43:21;2.50;;;1.30;;
793;SDS011;380;48.738;9.214;2022-09-02T16:45:47;2.47;;;1.33;;
793;SDS011;380;48.738;9.214;2022-09-02T16:48:15;2.13;;;1.17;;
793;SDS011;380;48.738;9.214;2022-09-02T16:50:42;2.13;;;1.13;;
793;SDS011;380;48.738;9.214;2022-09-02T16:53:08;3.78;;;1.10;;
793;SDS011;380;48.738;9.214;2022-09-02T16:55:39;2.55;;;1.30;;
793;SDS011;380;48.738;9.214;2022-09-02T16:58:06;2.00;;;1.38;;
793;SDS011;380;48.738;9.214;2022-09-02T17:00:34;2.47;;;1.50;;
793;SDS011;380;48.738;9.214;2022-09-02T17:03:02;2.97;;;1.30;;
793;SDS011;380;48.738;9.214;2022-09-02T17:05:28;2.13;;;1.27;;
793;SDS011;380;48.738;9.214;2022-09-02T17:07:54;1.70;;;1.02;;
793;SDS011;380;48.738;9.214;2022-09-02T17:10:22;1.65;;;1.10;;
793;SDS011;380;48.738;9.214;2022-09-02T17:12:48;1.40;;;0.80;;
793;SDS011;380;48.738;9.214;2022-09-02T17:15:14;2.58;;;1.10;;
793;SDS011;380;48.738;9.214;2022-09-02T17:17:40;2.60;;;1.33;;
793;SDS011;380;48.738;9.214;2022-09-02T17:20:06;4.35;;;1.33;;
793;SDS011;380;48.738;9.214;2022-09-02T17:22:33;2.35;;;1.45;;
793;SDS011;380;48.738;9.214;2022-09-02T17:24:59;1.55;;;0.88;;
793;SDS011;380;48.738;9.214;2022-09-02T17:27:25;2.25;;;1.10;;
793;SDS011;380;48.738;9.214;2022-09-02T17:29:51;1.70;;;1.00;;
793;SDS011;380;48.738;9.214;2022-09-02T17:32:18;3.60;;;1.25;;
793;SDS011;380;48.738;9.214;2022-09-02T17:34:45;2.55;;;1.30;;
793;SDS011;380;48.738;9.214;2022-09-02T17:37:11;4.68;;;1.15;;
793;SDS011;380;48.738;9.214;2022-09-02T17:39:37;1.80;;;1.05;;
793;SDS011;380;48.738;9.214;2022-09-02T17:42:03;1.77;;;0.77;;
793;SDS011;380;48.738;9.214;2022-09-02T17:44:30;3.08;;;1.17;;
793;SDS011;380;48.738;9.214;2022-09-02T17:46:59;2.08;;;1.17;;
793;SDS011;380;48.738;9.214;2022-09-02T17:49:25;2.75;;;1.00;;
793;SDS011;380;48.738;9.214;2022-09-02T17:51:52;2.35;;;1.40;;
793;SDS011;380;48.738;9.214;2022-09-02T17:54:18;3.60;;;1.05;;
793;SDS011;380;48.738;9.214;2022-09-02T18:10:03;2.33;;;1.20;;
793;SDS011;380;48.738;9.214;2022-09-02T18:12:29;2.10;;;1.13;;
793;SDS011;380;48.738;9.214;2022-09-02T18:14:56;2.50;;;1.60;;
793;SDS011;380;48.738;9.214;2022-09-02T18:25:28;2.92;;;1.67;;
793;SDS011;380;48.738;9.214;2022-09-02T18:30:23;2.42;;;1.40;;